Time;durP1;ratioP1;P1;durP2;ratioP2;P2;SDS_P1;SDS_P2;PMS_P1;PMS_P2;Temp;Humidity;BMP_temperature;BMP_pressure;BME280_temperature;BME280_humidity;BME280_pressure;Samples;Min_cycle;Max_cycle;Signal;HPM_P1;HPM_P2
2022/09/27 00:00:37;;;;;;;10.48;9.38;;;;;;;18.50;88.43;99095.59;5067562;28;20205;-30
2022/09/27 00:03:03;;;;;;;11.35;9.45;;;;;;;18.29;90.07;99087.03;5067431;28;20063;-27
2022/09/27 00:05:29;;;;;;;9.98;8.43;;;;;;;18.21;91.10;99093.91;5067168;28;20052;-29
2022/09/27 00:07:55;;;;;;;12.50;8.98;;;;;;;18.19;90.70;99079.91;5067253;28;20478;-28
2022/09/27 00:10:21;;;;;;;11.45;8.60;;;;;;;18.39;88.43;99078.78;5066984;28;20020;-27
2022/09/27 00:12:47;;;;;;;11.20;9.70;;;;;;;18.58;88.00;99092.22;5066762;28;20713;-27
2022/09/27 00:15:13;;;;;;;10.23;8.73;;;;;;;18.58;86.93;99069.84;5067085;28;20590;-28
2022/09/27 00:17:39;;;;;;;10.68;9.25;;;;;;;18.55;88.73;99086.63;5067112;28;20035;-28
2022/09/27 00:20:07;;;;;;;9.88;8.48;;;;;;;18.44;89.28;99077.91;5067149;28;20052;-30
2022/09/27 00:22:33;;;;;;;9.43;8.43;;;;;;;18.38;88.05;99063.66;5066979;28;20039;-31
2022/09/27 00:24:58;;;;;;;9.75;8.65;;;;;;;18.48;87.47;99070.81;5067234;28;20059;-28
2022/09/27 00:27:27;;;;;;;8.88;7.97;;;;;;;18.76;85.25;99081.69;5067140;28;20028;-27
2022/09/27 00:29:52;;;;;;;10.82;8.30;;;;;;;18.66;84.94;99061.06;5066848;28;20543;-28
2022/09/27 00:32:18;;;;;;;10.65;8.68;;;;;;;18.77;85.56;99080.59;5066933;28;20033;-31
2022/09/27 00:34:44;;;;;;;10.93;8.45;;;;;;;18.68;85.69;99075.06;5066959;28;20036;-27
2022/09/27 00:37:10;;;;;;;11.07;8.32;;;;;;;18.65;84.73;99054.88;5066885;28;20046;-29
2022/09/27 00:39:38;;;;;;;9.68;8.05;;;;;;;18.82;83.43;99062.41;5067060;28;20028;-28
2022/09/27 00:42:05;;;;;;;9.05;8.07;;;;;;;18.85;82.92;99075.31;5066850;28;20055;-28
2022/09/27 00:44:36;;;;;;;10.30;8.25;;;;;;;18.87;83.08;99080.44;5066988;28;20021;-28
2022/09/27 00:47:08;;;;;;;9.48;8.25;;;;;;;18.66;83.09;99036.75;5066902;28;20135;-27
2022/09/27 00:49:38;;;;;;;11.10;8.10;;;;;;;18.80;83.23;99061.91;5066698;28;20028;-30
2022/09/27 00:52:15;;;;;;;8.73;7.85;;;;;;;18.82;82.90;99061.63;5066673;28;20428;-27
2022/09/27 00:54:47;;;;;;;10.02;8.00;;;;;;;18.80;82.27;99051.13;5067048;28;20024;-28
2022/09/27 00:57:12;;;;;;;8.70;7.80;;;;;;;18.80;82.20;99059.22;5066971;28;20024;-28
2022/09/27 00:59:44;;;;;;;8.98;8.05;;;;;;;18.94;81.29;99063.81;5066908;28;20039;-32
2022/09/27 01:02:10;;;;;;;8.48;7.35;;;;;;;18.85;80.55;99059.09;5048533;28;20565;-29
2022/09/27 01:04:38;;;;;;;9.40;7.85;;;;;;;18.95;80.36;99043.81;5067319;28;20037;-28
2022/09/27 01:07:04;;;;;;;10.20;8.32;;;;;;;18.96;81.44;99054.34;5066669;28;20425;-29
2022/09/27 01:09:30;;;;;;;8.57;7.65;;;;;;;18.85;80.59;99021.28;5066770;28;20500;-30
2022/09/27 01:12:00;;;;;;;8.82;7.38;;;;;;;18.86;80.99;99049.13;5048329;28;20032;-29
2022/09/27 01:14:37;;;;;;;9.73;7.45;;;;;;;18.80;82.01;99040.31;5066491;28;20033;-27
2022/09/27 01:17:21;;;;;;;10.07;7.68;;;;;;;18.85;81.81;99042.09;5066871;28;20037;-27
2022/09/27 01:19:53;;;;;;;9.35;7.28;;;;;;;18.68;82.65;99040.75;5048440;28;20038;-28
2022/09/27 01:22:28;;;;;;;8.55;7.40;;;;;;;18.58;82.68;99026.63;5067631;28;20028;-28
2022/09/27 01:25:09;;;;;;;9.80;7.50;;;;;;;18.55;81.66;99001.03;5070529;28;20028;-30
2022/09/27 01:28:10;;;;;;;8.57;7.68;;;;;;;18.68;82.11;99031.84;5070454;28;20031;-28
2022/09/27 01:31:24;;;;;;;9.40;7.25;;;;;;;18.69;80.85;99017.25;5016910;28;20040;-28
2022/09/27 01:33:55;;;;;;;8.38;7.18;;;;;;;18.79;81.18;99027.88;4988150;28;20253;-31
2022/09/27 01:36:36;;;;;;;8.13;7.28;;;;;;;18.70;82.13;99028.88;5056299;28;20047;-30
2022/09/27 01:39:40;;;;;;;9.30;7.68;;;;;;;18.73;81.21;99020.94;5070326;28;20029;-27
2022/09/27 01:42:26;;;;;;;13.45;8.00;;;;;;;18.70;81.81;99028.88;5052095;28;20047;-27
2022/09/27 01:44:58;;;;;;;10.10;7.45;;;;;;;18.81;80.56;99025.69;5069686;28;20067;-30
2022/09/27 01:47:33;;;;;;;9.30;7.93;;;;;;;18.84;80.86;99025.09;5069832;28;20035;-28
2022/09/27 01:50:10;;;;;;;9.63;8.35;;;;;;;18.71;81.60;99009.66;5069764;28;20037;-28
2022/09/27 01:52:54;;;;;;;9.05;7.75;;;;;;;18.94;80.61;99017.91;5070014;28;20029;-30
2022/09/27 01:55:23;;;;;;;9.20;7.75;;;;;;;18.80;80.66;99002.50;5070154;28;20037;-27
2022/09/27 01:57:57;;;;;;;10.18;7.88;;;;;;;18.78;80.90;98999.25;5069993;28;20488;-28
2022/09/27 02:00:23;;;;;;;8.15;7.32;;;;;;;19.02;80.28;99017.19;5051548;28;20404;-28
2022/09/27 02:02:56;;;;;;;10.15;7.82;;;;;;;18.79;80.00;99010.88;5069768;28;20032;-27
2022/09/27 02:05:28;;;;;;;9.00;7.10;;;;;;;18.60;80.81;99003.63;5069516;28;20634;-28
2022/09/27 02:08:03;;;;;;;9.57;7.15;;;;;;;18.71;80.59;99012.34;5069369;28;20028;-28
2022/09/27 02:10:40;;;;;;;10.48;7.40;;;;;;;18.65;80.05;98994.63;5069752;28;20097;-27
2022/09/27 02:13:34;;;;;;;9.30;7.72;;;;;;;18.71;81.02;99014.25;5069332;28;20021;-27
2022/09/27 02:16:19;;;;;;;9.60;7.35;;;;;;;18.74;79.88;99019.06;5069333;28;20039;-28
2022/09/27 02:19:00;;;;;;;9.32;7.00;;;;;;;18.99;78.31;99029.41;5069623;28;20031;-28
2022/09/27 02:21:35;;;;;;;9.00;7.13;;;;;;;19.02;78.33;99019.91;5069257;28;20032;-31
2022/09/27 02:24:03;;;;;;;8.40;7.47;;;;;;;18.78;78.68;98993.06;5069311;28;20032;-28
2022/09/27 02:26:55;;;;;;;10.82;7.10;;;;;;;18.81;80.10;99004.09;5069315;28;20663;-29
2022/09/27 02:29:29;;;;;;;9.15;7.40;;;;;;;18.92;78.69;99006.59;5069161;28;20651;-30
2022/09/27 02:31:55;;;;;;;9.38;7.35;;;;;;;19.05;77.81;99008.50;5069284;28;20480;-27
2022/09/27 02:34:28;;;;;;;10.23;7.63;;;;;;;18.94;78.80;98985.47;5068164;28;20035;-31
2022/09/27 02:36:54;;;;;;;9.30;7.68;;;;;;;18.95;78.90;99000.59;5068921;28;20028;-29
2022/09/27 02:39:20;;;;;;;7.95;7.13;;;;;;;18.86;78.28;98995.09;5069080;28;20032;-27
2022/09/27 02:41:46;;;;;;;8.70;7.80;;;;;;;18.92;79.01;99010.13;5068790;28;20497;-31
2022/09/27 02:44:16;;;;;;;9.82;7.78;;;;;;;18.73;79.69;99020.94;5068754;28;20032;-27
2022/09/27 02:47:19;;;;;;;9.27;8.05;;;;;;;18.77;79.94;99027.34;5068913;28;20060;-27
2022/09/27 02:50:00;;;;;;;11.35;8.18;;;;;;;18.48;82.76;99023.00;5068660;28;20024;-28
2022/09/27 02:53:06;;;;;;;10.55;9.07;;;;;;;18.31;84.26;99041.66;5068753;28;20036;-27
2022/09/27 02:55:47;;;;;;;10.10;8.70;;;;;;;18.30;83.96;99040.06;5039923;28;20037;-28
2022/09/27 02:58:52;;;;;;;11.00;8.50;;;;;;;18.01;85.63;99011.38;5068583;28;20280;-30
2022/09/27 03:01:23;;;;;;;11.30;9.70;;;;;;;18.05;86.64;99025.88;5068870;28;20110;-28
2022/09/27 03:04:05;;;;;;;11.82;10.10;;;;;;;17.92;87.69;99006.91;5068454;28;20036;-29
2022/09/27 03:06:32;;;;;;;11.45;9.63;;;;;;;17.87;88.52;99013.19;5068265;28;20496;-28
2022/09/27 03:08:58;;;;;;;12.50;10.77;;;;;;;17.84;89.26;99009.22;5068262;28;20029;-31
2022/09/27 03:11:23;;;;;;;12.70;11.38;;;;;;;17.84;89.04;98994.94;5068355;28;20035;-30
2022/09/27 03:13:50;;;;;;;12.48;10.90;;;;;;;17.90;89.19;99004.53;5068339;28;20038;-30
2022/09/27 03:16:15;;;;;;;13.98;11.40;;;;;;;17.83;89.61;98990.63;5068737;28;20098;-33
2022/09/27 03:18:41;;;;;;;14.05;11.55;;;;;;;17.59;90.93;98969.91;5068286;28;20820;-28
2022/09/27 03:21:07;;;;;;;13.27;11.70;;;;;;;17.54;91.79;98969.97;5068245;28;20029;-27
2022/09/27 03:23:32;;;;;;;13.40;11.55;;;;;;;17.53;91.72;98976.47;5050001;28;20408;-30
2022/09/27 03:25:58;;;;;;;13.20;11.80;;;;;;;17.58;92.41;98992.56;5049701;28;20024;-27
2022/09/27 03:28:24;;;;;;;13.75;11.68;;;;;;;17.42;94.04;98996.56;5050026;28;20033;-29
2022/09/27 03:30:50;;;;;;;15.75;12.65;;;;;;;17.44;93.97;98999.75;5050022;28;20424;-27
2022/09/27 03:33:16;;;;;;;15.43;12.90;;;;;;;17.15;96.54;98981.03;5068054;28;20777;-27
2022/09/27 03:35:42;;;;;;;13.27;11.40;;;;;;;17.00;98.66;98998.97;5067989;28;20032;-28
2022/09/27 03:38:08;;;;;;;13.30;11.75;;;;;;;16.92;100.00;98998.78;5067941;28;20111;-31
2022/09/27 03:40:35;;;;;;;14.40;12.02;;;;;;;17.06;99.35;98972.75;5067914;28;20036;-29
2022/09/27 03:43:00;;;;;;;15.50;12.95;;;;;;;17.13;99.22;98972.44;5067965;28;20056;-28
2022/09/27 03:45:26;;;;;;;14.10;12.65;;;;;;;17.07;98.91;98963.59;5067508;28;20033;-27
2022/09/27 03:47:51;;;;;;;14.05;11.85;;;;;;;17.20;98.87;98989.03;5067660;28;20028;-29
2022/09/27 03:50:17;;;;;;;13.13;11.60;;;;;;;17.04;99.72;98996.47;5067719;28;20029;-29
2022/09/27 03:52:42;;;;;;;14.93;12.20;;;;;;;17.23;98.81;98993.84;5067442;28;20545;-27
2022/09/27 03:55:09;;;;;;;14.48;12.07;;;;;;;17.34;98.85;98994.50;5067294;28;20036;-30
2022/09/27 03:57:35;;;;;;;15.38;12.15;;;;;;;17.25;99.31;98981.69;5067423;28;20029;-28
2022/09/27 04:00:01;;;;;;;15.15;12.40;;;;;;;17.18;100.00;98989.34;5049256;28;20028;-29
2022/09/27 04:02:26;;;;;;;16.25;13.02;;;;;;;17.21;100.00;98990.66;5067502;28;20440;-29
2022/09/27 04:04:52;;;;;;;16.55;13.15;;;;;;;17.25;100.00;98970.91;5067768;28;20044;-28
2022/09/27 04:07:17;;;;;;;15.80;13.30;;;;;;;17.39;99.81;98975.59;5065555;28;20048;-30
2022/09/27 04:09:45;;;;;;;14.75;13.05;;;;;;;17.36;99.95;98965.38;5067414;28;20086;-28
2022/09/27 04:12:11;;;;;;;16.20;13.53;;;;;;;17.38;99.47;98960.50;5049101;28;20588;-28
2022/09/27 04:14:36;;;;;;;17.67;13.00;;;;;;;17.38;98.90;98957.81;5067272;28;20123;-28
2022/09/27 04:17:02;;;;;;;16.45;12.77;;;;;;;17.43;98.79;98965.84;5067322;28;20412;-28
2022/09/27 04:19:27;;;;;;;19.25;14.63;;;;;;;17.46;98.33;98959.84;5067415;28;20028;-32
2022/09/27 04:21:53;;;;;;;14.80;12.60;;;;;;;17.45;98.71;98972.53;5066925;28;20060;-31
2022/09/27 04:24:18;;;;;;;14.77;13.13;;;;;;;17.46;98.38;98987.59;5066966;28;20116;-30
2022/09/27 04:26:43;;;;;;;17.10;13.25;;;;;;;17.36;98.64;98978.84;5067489;28;20021;-28
2022/09/27 04:29:09;;;;;;;17.90;14.32;;;;;;;17.29;98.69;98962.25;5048954;28;20123;-28
2022/09/27 04:31:36;;;;;;;16.92;14.02;;;;;;;17.24;99.39;98972.00;5067127;28;20492;-27
2022/09/27 04:34:06;;;;;;;16.07;14.37;;;;;;;17.11;100.00;98963.84;5067038;28;20039;-29
2022/09/27 04:36:32;;;;;;;15.65;14.05;;;;;;;17.27;99.67;98979.50;5048712;28;20119;-28
2022/09/27 04:38:59;;;;;;;16.10;13.88;;;;;;;17.18;99.75;98978.56;5067457;28;20081;-28
2022/09/27 04:41:27;;;;;;;16.42;14.65;;;;;;;17.05;100.00;98947.72;5067104;28;20053;-30
2022/09/27 04:43:54;;;;;;;21.97;16.63;;;;;;;17.10;100.00;98946.88;5048864;28;20040;-28
2022/09/27 04:46:20;;;;;;;20.08;15.75;;;;;;;17.14;100.00;98947.91;5066931;28;20300;-29
2022/09/27 04:48:48;;;;;;;20.65;15.50;;;;;;;17.22;99.57;98947.25;5066971;28;20033;-30
2022/09/27 04:51:16;;;;;;;21.13;14.07;;;;;;;17.24;99.13;98955.84;5066638;28;20033;-28
2022/09/27 04:53:45;;;;;;;18.05;14.40;;;;;;;17.29;99.84;98959.56;5067081;28;20043;-29
2022/09/27 04:56:12;;;;;;;15.35;13.75;;;;;;;17.10;100.00;98946.06;5065687;28;20032;-29
2022/09/27 04:58:37;;;;;;;15.40;12.88;;;;;;;17.33;99.96;98949.81;5051885;28;20024;-27
2022/09/27 05:01:04;;;;;;;16.40;13.70;;;;;;;17.35;100.00;98966.50;5071036;28;20090;-28
2022/09/27 05:03:32;;;;;;;18.02;13.98;;;;;;;17.46;99.98;98976.03;5071021;28;20043;-29
2022/09/27 05:05:59;;;;;;;16.10;13.15;;;;;;;17.51;100.00;98984.06;5052252;28;20061;-28
2022/09/27 05:08:25;;;;;;;15.38;13.63;;;;;;;17.27;100.00;98992.19;5052685;28;20508;-27
2022/09/27 05:10:51;;;;;;;21.40;16.48;;;;;;;17.13;100.00;98967.84;5070637;28;20470;-30
2022/09/27 05:13:17;;;;;;;18.30;14.77;;;;;;;17.33;100.00;98968.66;5069211;28;20021;-27
2022/09/27 05:15:42;;;;;;;18.40;14.38;;;;;;;17.45;100.00;98969.03;5070773;28;20113;-26
2022/09/27 05:18:11;;;;;;;16.63;14.82;;;;;;;17.46;100.00;98959.84;5070667;28;20058;-27
2022/09/27 05:20:36;;;;;;;16.08;13.90;;;;;;;17.35;100.00;98950.31;5070310;28;20039;-31
2022/09/27 05:23:03;;;;;;;19.55;14.45;;;;;;;17.38;100.00;98969.38;5070560;28;20025;-27
2022/09/27 05:25:30;;;;;;;18.38;14.40;;;;;;;17.30;100.00;98955.75;5070392;28;20028;-29
2022/09/27 05:27:57;;;;;;;20.52;14.52;;;;;;;17.48;100.00;98963.06;5052095;28;20050;-28
2022/09/27 05:30:23;;;;;;;18.42;14.13;;;;;;;17.50;99.69;98955.47;5070215;28;20036;-29
2022/09/27 05:32:49;;;;;;;27.70;19.02;;;;;;;17.76;98.88;98952.41;5070114;28;20027;-29
2022/09/27 05:35:16;;;;;;;20.27;15.45;;;;;;;17.99;97.46;98929.94;5070175;28;20032;-28
2022/09/27 05:37:42;;;;;;;16.58;13.68;;;;;;;18.35;95.88;98947.41;5070529;28;20134;-27
2022/09/27 05:40:08;;;;;;;17.80;13.30;;;;;;;18.32;95.08;98940.69;5069953;28;20028;-28
2022/09/27 05:42:33;;;;;;;20.65;13.05;;;;;;;18.45;95.58;98948.03;5070329;28;20028;-26
2022/09/27 05:44:59;;;;;;;21.52;12.85;;;;;;;18.66;93.83;98932.22;5070164;28;20115;-28
2022/09/27 05:47:24;;;;;;;16.50;13.45;;;;;;;18.72;92.50;98948.34;5069853;28;20028;-30
2022/09/27 05:49:50;;;;;;;17.88;13.45;;;;;;;18.74;92.14;98949.66;5069920;28;20749;-28
2022/09/27 05:52:17;;;;;;;15.32;12.52;;;;;;;18.75;92.13;98945.81;5069851;28;20474;-34
2022/09/27 05:54:42;;;;;;;16.35;13.05;;;;;;;18.82;92.06;98956.28;5070104;28;20059;-28
2022/09/27 05:57:08;;;;;;;23.92;16.30;;;;;;;18.78;91.70;98945.25;5069913;28;20024;-28
2022/09/27 05:59:33;;;;;;;16.88;13.25;;;;;;;19.04;90.88;98964.47;5069851;28;20029;-28
2022/09/27 06:01:59;;;;;;;16.05;12.05;;;;;;;18.95;90.53;98947.34;5069337;28;20032;-28
2022/09/27 06:04:24;;;;;;;26.80;20.73;;;;;;;19.10;91.06;98967.06;5069823;28;20385;-28
2022/09/27 06:06:50;;;;;;;34.50;21.83;;;;;;;19.09;89.80;98949.25;5069481;28;20065;-27
2022/09/27 06:09:16;;;;;;;16.98;12.52;;;;;;;19.10;91.04;98962.44;5069691;28;20028;-30
2022/09/27 06:11:44;;;;;;;16.73;12.27;;;;;;;19.31;89.43;98946.63;5069579;28;20068;-30
2022/09/27 06:14:10;;;;;;;;;;;;;;;19.46;89.66;98948.16;5051537;28;20032;-30
2022/09/27 06:16:35;;;;;;;18.95;14.40;;;;;;;19.52;85.97;98929.94;5069237;28;19908;-29
2022/09/27 06:19:02;;;;;;;13.80;11.52;;;;;;;19.58;87.00;98926.81;5051265;28;20037;-30
2022/09/27 06:21:30;;;;;;;18.60;13.77;;;;;;;19.74;85.78;98931.88;5069486;28;20034;-27
2022/09/27 06:23:56;;;;;;;17.45;13.20;;;;;;;19.61;84.09;98920.75;5051243;28;20032;-27
2022/09/27 06:26:21;;;;;;;12.45;11.13;;;;;;;19.74;85.01;98926.47;5069526;28;20531;-29
2022/09/27 06:28:47;;;;;;;12.40;10.75;;;;;;;19.87;84.04;98936.41;5069266;28;20044;-28
2022/09/27 06:31:13;;;;;;;13.20;10.27;;;;;;;20.05;84.19;98938.13;5069033;28;20032;-27
2022/09/27 06:33:38;;;;;;;12.80;10.15;;;;;;;20.15;83.16;98930.88;5069073;28;20439;-27
2022/09/27 06:36:06;;;;;;;14.02;11.27;;;;;;;20.22;83.13;98936.63;5069013;28;20082;-28
2022/09/27 06:38:31;;;;;;;12.63;10.80;;;;;;;20.16;83.84;98916.22;5051118;28;20028;-30
2022/09/27 06:41:01;;;;;;;11.35;9.40;;;;;;;20.03;83.31;98932.22;5068917;28;20044;-27
2022/09/27 06:43:26;;;;;;;16.42;11.88;;;;;;;20.03;82.63;98944.97;5069113;28;20129;-29
2022/09/27 06:45:52;;;;;;;15.73;11.57;;;;;;;20.35;81.96;98959.31;5068508;28;20058;-28
2022/09/27 06:48:18;;;;;;;14.10;11.25;;;;;;;20.53;81.15;98946.66;5069158;28;20181;-28
2022/09/27 06:50:45;;;;;;;13.23;10.35;;;;;;;20.74;80.90;98938.78;5068899;28;20028;-28
2022/09/27 06:53:13;;;;;;;12.40;9.80;;;;;;;20.89;80.66;98937.56;5068738;28;20047;-28
2022/09/27 06:55:39;;;;;;;11.85;10.45;;;;;;;21.02;77.69;98931.22;5068629;28;20036;-27
2022/09/27 07:00:52;;;;;;;13.05;10.13;;;;;;;20.88;79.58;98936.75;5068632;28;20086;-27
2022/09/27 07:03:18;;;;;;;13.82;10.50;;;;;;;20.87;80.23;98946.81;5068571;28;20036;-28
2022/09/27 07:05:57;;;;;;;12.75;10.50;;;;;;;20.74;80.82;98942.31;5068299;28;20163;-28
2022/09/27 07:08:25;;;;;;;14.13;10.43;;;;;;;20.83;80.96;98940.41;5068406;28;20488;-27
2022/09/27 07:10:51;;;;;;;16.75;10.80;;;;;;;20.78;79.72;98940.56;5067953;28;20687;-27
2022/09/27 07:13:17;;;;;;;15.35;10.20;;;;;;;20.95;79.90;98944.44;5068548;28;20037;-27
2022/09/27 07:15:43;;;;;;;12.35;9.35;;;;;;;20.89;80.29;98932.16;5068184;28;20032;-28
2022/09/27 07:18:08;;;;;;;10.90;9.77;;;;;;;20.85;80.48;98930.06;5066640;28;20029;-30
2022/09/27 07:20:37;;;;;;;11.27;9.48;;;;;;;20.92;81.12;98931.50;5067678;28;20064;-29
2022/09/27 07:23:04;;;;;;;11.30;9.55;;;;;;;21.10;80.16;98933.16;5067965;28;20040;-28
2022/09/27 07:25:30;;;;;;;10.35;9.23;;;;;;;21.20;80.19;98949.09;5067788;28;20021;-29
2022/09/27 07:28:04;;;;;;;11.82;9.35;;;;;;;21.04;81.77;98940.66;5068072;28;20480;-27
2022/09/27 07:30:31;;;;;;;10.77;9.00;;;;;;;21.14;80.83;98923.28;5068070;28;20039;-28
2022/09/27 07:33:01;;;;;;;12.48;9.75;;;;;;;21.21;79.25;98923.59;5067632;28;20028;-29
2022/09/27 07:35:27;;;;;;;13.43;10.25;;;;;;;21.24;79.31;98928.38;5067936;28;20397;-27
2022/09/27 07:37:54;;;;;;;12.45;9.52;;;;;;;21.08;81.98;98924.53;5067343;28;20033;-28
2022/09/27 07:40:20;;;;;;;12.98;9.93;;;;;;;21.11;81.07;98923.91;5067591;28;20060;-28
2022/09/27 07:42:45;;;;;;;10.27;9.02;;;;;;;21.19;80.64;98906.88;5049639;28;20105;-28
2022/09/27 07:45:11;;;;;;;11.32;10.13;;;;;;;21.37;80.15;98917.69;5067522;28;20117;-28
2022/09/27 07:47:38;;;;;;;11.57;9.57;;;;;;;21.55;79.04;98911.19;5067569;28;20111;-31
2022/09/27 07:50:05;;;;;;;11.48;10.38;;;;;;;21.76;78.89;98910.53;5067129;28;20029;-28
2022/09/27 07:52:40;;;;;;;11.70;10.30;;;;;;;21.66;78.64;98889.97;5067309;28;20043;-28
2022/09/27 07:55:08;;;;;;;10.80;9.38;;;;;;;21.73;78.66;98895.69;5049444;28;20016;-28
2022/09/27 07:57:33;;;;;;;13.90;9.40;;;;;;;21.78;78.50;98892.00;5067547;28;20032;-29
2022/09/27 07:59:59;;;;;;;16.08;9.65;;;;;;;21.87;77.98;98900.94;5067032;28;20090;-28
2022/09/27 08:02:24;;;;;;;14.00;9.40;;;;;;;21.95;76.99;98916.41;5049164;28;20090;-31
2022/09/27 08:04:51;;;;;;;11.93;8.27;;;;;;;21.91;77.10;98928.25;5067154;28;20642;-28
2022/09/27 08:07:17;;;;;;;13.48;8.60;;;;;;;21.81;78.07;98934.81;5067332;28;20490;-28
2022/09/27 08:09:42;;;;;;;17.48;8.75;;;;;;;22.02;77.13;98930.28;5067363;28;20024;-28
2022/09/27 08:12:09;;;;;;;13.50;8.57;;;;;;;22.46;75.22;98922.06;5048883;28;20060;-28
2022/09/27 08:14:35;;;;;;;14.20;8.43;;;;;;;22.55;73.15;98927.44;5067343;28;20082;-31
2022/09/27 08:17:00;;;;;;;10.57;8.73;;;;;;;22.91;73.49;98926.16;5067110;28;20037;-29
2022/09/27 08:19:26;;;;;;;10.75;7.93;;;;;;;23.05;70.82;98924.03;5067090;28;20404;-31
2022/09/27 08:21:53;;;;;;;16.75;8.60;;;;;;;22.96;72.13;98906.94;5066917;28;20388;-28
2022/09/27 08:24:20;;;;;;;10.52;8.35;;;;;;;22.85;71.11;98907.31;5067289;28;20047;-30
2022/09/27 08:26:45;;;;;;;12.10;8.15;;;;;;;22.70;71.09;98897.03;5066977;28;20067;-29
2022/09/27 08:29:11;;;;;;;10.70;8.35;;;;;;;22.45;71.34;98904.97;5067230;28;20055;-28
2022/09/27 08:31:37;;;;;;;11.35;7.97;;;;;;;22.36;72.87;98901.47;5048240;28;20473;-29
2022/09/27 08:34:03;;;;;;;10.65;8.00;;;;;;;22.69;71.61;98897.34;5066283;28;20524;-28
2022/09/27 08:36:30;;;;;;;11.68;8.50;;;;;;;23.18;70.63;98903.94;5049118;28;20052;-29
2022/09/27 08:38:58;;;;;;;11.82;7.50;;;;;;;23.51;68.70;98905.91;5066882;28;20028;-28
2022/09/27 08:42:13;;;;;;;11.38;8.43;;;;;;;23.80;66.83;98904.22;5066916;28;20025;-33
2022/09/27 08:44:54;;;;;;;8.73;7.80;;;;;;;24.40;64.64;98889.16;4965401;28;20145;-28
2022/09/27 08:47:27;;;;;;;8.57;7.15;;;;;;;24.50;63.06;98885.22;4965370;28;20561;-30
2022/09/27 08:49:58;;;;;;;8.73;6.80;;;;;;;24.33;64.69;98866.31;5027075;28;20040;-27
2022/09/27 08:52:34;;;;;;;9.02;6.90;;;;;;;24.61;63.60;98883.63;5066737;28;20166;-28
2022/09/27 08:55:05;;;;;;;8.60;6.90;;;;;;;24.50;63.31;98873.50;5066534;28;20038;-28
2022/09/27 08:57:30;;;;;;;9.38;7.18;;;;;;;24.38;64.56;98849.75;5066897;28;20051;-28
2022/09/27 09:00:05;;;;;;;7.88;6.78;;;;;;;24.66;64.44;98863.50;5066735;28;20071;-27
2022/09/27 09:02:31;;;;;;;8.27;6.80;;;;;;;24.42;63.21;98845.22;5066665;28;20420;-29
2022/09/27 09:05:05;;;;;;;7.75;6.15;;;;;;;24.66;62.70;98856.13;5066994;28;20038;-28
2022/09/27 09:07:55;;;;;;;8.45;6.82;;;;;;;24.84;62.19;98866.78;5066327;28;20500;-28
2022/09/27 09:13:43;;;;;;;8.57;5.63;;;;;;;24.95;59.90;98867.13;5066691;28;20035;-29
2022/09/27 09:16:14;;;;;;;7.78;5.75;;;;;;;25.14;59.95;98855.59;5048347;28;20029;-28
2022/09/27 09:19:22;;;;;;;7.88;6.10;;;;;;;25.08;61.20;98855.03;5066621;28;20089;-29
2022/09/27 09:22:05;;;;;;;9.07;6.40;;;;;;;24.95;61.55;98840.63;5066540;28;20027;-27
2022/09/27 09:24:45;;;;;;;8.80;6.07;;;;;;;25.23;59.15;98857.06;5048813;28;20029;-29
2022/09/27 09:27:26;;;;;;;7.50;6.63;;;;;;;25.18;60.80;98842.84;5066620;28;20060;-28
2022/09/27 09:30:17;;;;;;;7.85;5.70;;;;;;;25.00;60.37;98847.78;5066215;28;20094;-28
2022/09/27 09:33:01;;;;;;;8.45;6.32;;;;;;;25.21;59.89;98845.72;5066164;28;20559;-30
2022/09/27 09:35:38;;;;;;;9.23;5.65;;;;;;;25.07;60.34;98848.00;5066461;28;20036;-28
2022/09/27 09:38:12;;;;;;;8.63;5.82;;;;;;;25.02;60.10;98834.59;5048124;28;20028;-28
2022/09/27 09:40:45;;;;;;;7.45;5.68;;;;;;;25.10;60.48;98825.47;5066192;28;20039;-28
2022/09/27 09:43:26;;;;;;;7.78;5.43;;;;;;;25.16;60.41;98815.91;5066898;28;20025;-27
2022/09/27 09:46:19;;;;;;;7.15;5.32;;;;;;;25.52;58.12;98816.94;5069909;28;20032;-28
2022/09/27 09:48:49;;;;;;;8.85;5.78;;;;;;;25.52;58.92;98799.72;5069787;28;20534;-28
2022/09/27 09:51:21;;;;;;;7.50;5.80;;;;;;;25.61;57.92;98782.06;5069600;28;20036;-28
2022/09/27 09:53:49;;;;;;;9.13;5.68;;;;;;;25.85;57.27;98794.75;5069749;28;20029;-29
2022/09/27 09:56:31;;;;;;;8.38;5.85;;;;;;;25.79;57.48;98796.16;5069783;28;20385;-28
2022/09/27 09:59:03;;;;;;;7.57;5.80;;;;;;;25.69;57.23;98779.53;5069890;28;20028;-28
2022/09/27 10:01:34;;;;;;;8.65;5.63;;;;;;;25.62;58.01;98774.66;5069680;28;20086;-27
2022/09/27 10:04:01;;;;;;;7.72;5.50;;;;;;;25.73;58.22;98781.19;5069859;28;20142;-29
2022/09/27 10:06:29;;;;;;;7.80;5.30;;;;;;;25.90;54.48;98788.25;5069230;28;20063;-28
2022/09/27 10:08:54;;;;;;;9.38;5.82;;;;;;;25.99;55.58;98782.63;5069953;28;20032;-28
2022/09/27 10:11:28;;;;;;;8.13;5.28;;;;;;;26.34;54.29;98762.78;5069351;28;20033;-28
2022/09/27 10:13:56;;;;;;;7.85;5.03;;;;;;;26.83;55.88;98779.47;5051146;28;20025;-29
2022/09/27 10:16:25;;;;;;;7.45;4.82;;;;;;;27.36;51.02;98769.97;5069076;28;20424;-28
2022/09/27 10:18:56;;;;;;;6.75;5.03;;;;;;;27.55;50.51;98767.19;5051425;28;20024;-27
2022/09/27 10:21:26;;;;;;;7.00;5.10;;;;;;;27.80;49.25;98764.09;5069418;28;20036;-29
2022/09/27 10:24:12;;;;;;;6.97;4.63;;;;;;;27.58;50.07;98768.41;5069066;28;20470;-32
2022/09/27 10:26:42;;;;;;;8.15;4.70;;;;;;;27.73;49.85;98747.56;5069009;28;20107;-29
2022/09/27 10:29:19;;;;;;;7.13;4.90;;;;;;;27.56;51.37;98754.28;5051226;28;20589;-28
2022/09/27 10:31:47;;;;;;;8.27;5.25;;;;;;;27.47;47.76;98738.13;5069525;28;20028;-27
2022/09/27 10:34:21;;;;;;;6.32;5.05;;;;;;;27.74;49.45;98757.34;5069226;28;20063;-30
2022/09/27 10:37:06;;;;;;;7.10;4.55;;;;;;;28.07;47.84;98734.81;5068951;28;20483;-28
2022/09/27 10:39:32;;;;;;;5.72;4.50;;;;;;;27.73;47.98;98753.03;5068899;28;20029;-27
2022/09/27 10:41:57;;;;;;;7.20;4.75;;;;;;;27.55;46.78;98753.50;5069179;28;20044;-32
2022/09/27 10:44:31;;;;;;;8.88;6.30;;;;;;;27.60;48.13;98753.22;5069022;28;20052;-31
2022/09/27 10:47:07;;;;;;;7.40;5.40;;;;;;;27.90;47.48;98738.06;5069002;28;20039;-27
2022/09/27 10:49:37;;;;;;;5.80;4.22;;;;;;;28.02;45.33;98741.38;5069050;28;20036;-28
2022/09/27 10:52:13;;;;;;;6.38;4.30;;;;;;;28.21;44.60;98736.97;5068516;28;20093;-31
2022/09/27 10:54:41;;;;;;;5.10;4.50;;;;;;;28.66;44.33;98735.25;5049995;28;20024;-28
2022/09/27 10:57:12;;;;;;;7.30;4.60;;;;;;;28.48;44.15;98728.72;5068998;28;20067;-27
2022/09/27 10:59:41;;;;;;;6.78;4.20;;;;;;;28.32;44.58;98731.63;5068556;28;20028;-28
2022/09/27 11:02:23;;;;;;;4.85;3.90;;;;;;;28.70;43.18;98733.34;5068039;28;20418;-27
2022/09/27 11:05:28;;;;;;;6.50;3.80;;;;;;;29.36;41.52;98728.22;5068467;28;20112;-31
2022/09/27 11:08:18;;;;;;;5.85;3.53;;;;;;;28.95;39.99;98719.13;5026712;28;20079;-29
2022/09/27 11:10:58;;;;;;;6.07;3.95;;;;;;;28.87;42.07;98733.94;5068482;28;20051;-28
2022/09/27 11:13:24;;;;;;;6.95;4.00;;;;;;;29.11;40.30;98708.75;5068191;28;20750;-28
2022/09/27 11:16:01;;;;;;;5.38;4.07;;;;;;;29.26;41.64;98717.94;5068307;28;20024;-28
2022/09/27 11:18:45;;;;;;;;;;;;;;;29.73;41.35;98715.59;5050576;28;20134;-28
2022/09/27 11:21:10;;;;;;;5.95;4.13;;;;;;;30.46;40.68;98714.94;5068271;28;19916;-28
2022/09/27 11:23:50;;;;;;;5.97;4.03;;;;;;;30.86;39.01;98713.16;5068101;28;20024;-29
2022/09/27 11:26:35;;;;;;;4.97;3.70;;;;;;;29.88;38.68;98678.84;5049971;28;20458;-32
2022/09/27 11:29:22;;;;;;;7.30;4.28;;;;;;;30.19;39.31;98695.91;5067799;28;20030;-31
2022/09/27 11:32:18;;;;;;;7.03;4.13;;;;;;;30.59;37.15;98680.44;5067729;28;20082;-29
2022/09/27 11:35:05;;;;;;;7.60;3.90;;;;;;;30.90;37.98;98680.94;5067871;28;20059;-29
2022/09/27 11:37:44;;;;;;;6.35;3.78;;;;;;;30.52;36.76;98674.88;5067747;28;20090;-28
2022/09/27 11:40:34;;;;;;;6.72;3.88;;;;;;;31.00;37.78;98672.69;5067710;28;20028;-29
2022/09/27 11:43:26;;;;;;;7.15;5.38;;;;;;;31.00;38.15;98671.91;5049618;28;20416;-29
2022/09/27 11:46:29;;;;;;;5.95;4.65;;;;;;;31.28;35.98;98676.66;5054264;28;20071;-31
2022/09/27 11:49:19;;;;;;;5.47;3.58;;;;;;;31.23;35.26;98669.56;5067628;28;20094;-28